PTK weather

Oakland County International Airport
Pontiac, Michigan, United States

Public forecast

Using degrees Fahrenheit for public forecast. Weather courtesy of forecast.io.

Current aviation weather report (METAR) for Oakland County International Airport

Retrieved 2020/06/03 15:53 UTC (30 minutes ago):

KPTK 031553Z 28018G28KT 10SM FEW030 FEW140 BKN220 24/16 A2974 RMK AO2 PK WND 27028/1547 SLP063 T02440156

Aviation forecast (TAF) for Oakland County International Airport

Retrieved 2020/06/03 12:34 UTC (4 hours ago):

TAF KPTK 031132Z 0312/0412 23007KT P6SM SCT100 BKN200 FM031600 28013G20KT P6SM BKN250 FM032300 32007KT P6SM SCT045 FM040200 04007KT P6SM SKC FM041000 VRB03KT 6SM BR BKN250